createdAt,value
2018-05-16T00:00:03.256Z,93.90
2018-05-16T00:01:03.152Z,103.70
2018-05-16T00:02:03.063Z,102.70
2018-05-16T00:03:02.958Z,95.10
2018-05-16T00:04:02.855Z,91.00
2018-05-16T00:05:02.763Z,100.80
2018-05-16T00:06:02.659Z,107.20
2018-05-16T00:07:02.571Z,104.10
2018-05-16T00:08:02.468Z,101.80
2018-05-16T00:09:02.364Z,107.40
2018-05-16T00:10:02.271Z,111.20
2018-05-16T00:11:02.169Z,112.20
2018-05-16T00:12:02.066Z,104.40
2018-05-16T00:13:02.003Z,107.40
2018-05-16T00:14:01.872Z,108.40
2018-05-16T00:15:01.780Z,105.80
2018-05-16T00:16:01.677Z,109.10
2018-05-16T00:17:01.575Z,111.90
2018-05-16T00:18:01.785Z,118.20
2018-05-16T00:19:01.380Z,115.70
2018-05-16T00:20:01.279Z,114.80
2018-05-16T00:21:01.186Z,126.50
2018-05-16T00:22:01.084Z,137.60
2018-05-16T00:23:00.980Z,138.50
2018-05-16T00:24:00.890Z,142.70
2018-05-16T00:25:00.785Z,135.90
2018-05-16T00:26:00.694Z,131.70
2018-05-16T00:27:00.591Z,137.50
2018-05-16T00:28:00.487Z,138.30
2018-05-16T00:29:00.397Z,141.40
2018-05-16T00:30:00.294Z,138.70
2018-05-16T00:31:00.190Z,136.70
2018-05-16T00:32:00.098Z,134.60
2018-05-16T00:32:59.997Z,156.70
2018-05-16T00:33:59.905Z,145.20
2018-05-16T00:34:59.802Z,140.10
2018-05-16T00:35:59.699Z,144.40
2018-05-16T00:36:59.607Z,150.80
2018-05-16T00:37:59.503Z,148.30
2018-05-16T00:38:59.404Z,149.80
2018-05-16T00:39:59.310Z,139.30
2018-05-16T00:40:59.209Z,151.30
2018-05-16T00:41:59.117Z,143.90
2018-05-16T00:42:59.013Z,148.80
2018-05-16T00:43:58.910Z,151.90
2018-05-16T00:44:58.819Z,142.00
2018-05-16T00:45:58.715Z,167.20
2018-05-16T00:46:58.613Z,154.50
2018-05-16T00:47:58.524Z,146.80
2018-05-16T00:48:58.417Z,150.40
2018-05-16T00:49:58.328Z,160.00
2018-05-16T00:50:58.248Z,161.40
2018-05-16T00:51:58.122Z,149.80
2018-05-16T00:52:58.029Z,169.60
2018-05-16T00:53:57.926Z,174.00
2018-05-16T00:54:57.824Z,161.30
2018-05-16T00:55:57.725Z,179.30
2018-05-16T00:56:57.630Z,176.80
2018-05-16T00:57:57.855Z,165.60
2018-05-16T00:58:57.434Z,180.90
2018-05-16T00:59:57.330Z,166.50
2018-05-16T01:00:57.241Z,177.90
2018-05-16T01:01:57.138Z,178.20
2018-05-16T01:02:57.048Z,174.10
2018-05-16T01:03:56.942Z,166.00
2018-05-16T01:04:56.840Z,166.80
2018-05-16T01:05:56.749Z,166.10
2018-05-16T01:06:56.645Z,175.10
2018-05-16T01:07:56.542Z,168.50
2018-05-16T01:08:56.451Z,168.50
2018-05-16T01:09:56.348Z,167.60
2018-05-16T01:10:56.246Z,171.70
2018-05-16T01:11:56.156Z,172.70
2018-05-16T01:12:56.051Z,178.30
2018-05-16T01:13:55.959Z,172.20
2018-05-16T01:14:55.856Z,175.90
2018-05-16T01:15:55.753Z,158.60
2018-05-16T01:16:55.663Z,168.30
2018-05-16T01:17:55.560Z,178.20
2018-05-16T01:18:55.481Z,173.30
2018-05-16T01:19:55.365Z,166.70
2018-05-16T01:20:55.262Z,162.80
2018-05-16T01:21:55.172Z,174.10
2018-05-16T01:22:55.073Z,183.70
2018-05-16T01:23:54.970Z,172.80
2018-05-16T01:24:54.871Z,167.10
2018-05-16T01:25:54.769Z,170.30
2018-05-16T01:26:54.684Z,170.20
2018-05-16T01:27:54.576Z,160.70
2018-05-16T01:28:54.473Z,163.50
2018-05-16T01:29:54.381Z,174.40
2018-05-16T01:30:54.278Z,164.70
2018-05-16T01:31:54.176Z,174.20
2018-05-16T01:32:54.087Z,172.10
2018-05-16T01:33:53.981Z,172.60
2018-05-16T01:34:53.889Z,165.70
2018-05-16T01:35:53.786Z,168.30
2018-05-16T01:36:53.683Z,182.70
2018-05-16T01:37:53.593Z,166.70
2018-05-16T01:38:53.490Z,174.00
2018-05-16T01:39:53.417Z,177.80
2018-05-16T01:40:53.301Z,171.20
2018-05-16T01:41:53.193Z,177.80
2018-05-16T01:42:53.102Z,170.30
2018-05-16T01:43:52.998Z,172.70
2018-05-16T01:44:52.898Z,183.00
2018-05-16T01:45:52.803Z,191.90
2018-05-16T01:46:52.699Z,189.90
2018-05-16T01:47:52.610Z,193.20
2018-05-16T01:48:52.507Z,177.50
2018-05-16T01:49:52.404Z,182.90
2018-05-16T01:50:52.311Z,193.60
2018-05-16T01:51:52.208Z,182.20
2018-05-16T01:52:52.106Z,188.60
2018-05-16T01:53:52.016Z,189.20
2018-05-16T01:54:51.916Z,192.40
2018-05-16T01:55:51.821Z,190.70
2018-05-16T01:56:51.731Z,194.70
2018-05-16T01:57:51.619Z,197.80
2018-05-16T01:58:51.523Z,193.00
2018-05-16T01:59:51.420Z,196.00
2018-05-16T02:00:51.328Z,203.10
2018-05-16T02:01:51.225Z,196.40
2018-05-16T02:02:51.126Z,189.70
2018-05-16T02:03:51.031Z,208.10
2018-05-16T02:04:50.929Z,200.10
2018-05-16T02:05:50.826Z,204.90
2018-05-16T02:06:50.737Z,199.40
2018-05-16T02:07:50.630Z,199.80
2018-05-16T02:08:50.540Z,207.30
2018-05-16T02:09:50.437Z,188.60
2018-05-16T02:10:50.333Z,194.70
2018-05-16T02:11:50.256Z,200.90
2018-05-16T02:12:50.138Z,196.00
2018-05-16T02:13:50.050Z,187.50
2018-05-16T02:14:49.948Z,192.80
2018-05-16T02:15:49.850Z,196.80
2018-05-16T02:16:49.750Z,186.20
2018-05-16T02:17:49.947Z,204.00
2018-05-16T02:18:49.545Z,195.70
2018-05-16T02:19:49.457Z,198.20
2018-05-16T02:20:49.351Z,200.60
2018-05-16T02:21:49.260Z,198.20
2018-05-16T02:22:49.155Z,193.10
2018-05-16T02:23:49.052Z,188.40
2018-05-16T02:24:48.962Z,187.30
2018-05-16T02:25:48.859Z,190.50
2018-05-16T02:26:48.767Z,198.10
2018-05-16T02:27:48.664Z,194.30
2018-05-16T02:28:48.561Z,190.40
2018-05-16T02:29:48.470Z,180.70
2018-05-16T02:30:48.368Z,183.30
2018-05-16T02:31:48.265Z,193.70
2018-05-16T02:32:48.173Z,194.40
2018-05-16T02:33:48.069Z,187.70
2018-05-16T02:34:47.980Z,183.40
2018-05-16T02:35:47.877Z,185.00
2018-05-16T02:36:47.773Z,184.00
2018-05-16T02:37:47.686Z,169.80
2018-05-16T02:38:47.578Z,190.70
2018-05-16T02:39:47.488Z,181.90
2018-05-16T02:40:47.384Z,185.50
2018-05-16T02:41:47.282Z,186.20
2018-05-16T02:42:47.189Z,175.70
2018-05-16T02:43:47.086Z,182.50
2018-05-16T02:44:46.996Z,180.90
2018-05-16T02:45:46.893Z,189.40
2018-05-16T02:46:46.790Z,205.50
2018-05-16T02:47:46.698Z,193.40
2018-05-16T02:48:46.595Z,180.40
2018-05-16T02:49:46.506Z,195.20
2018-05-16T02:50:46.402Z,179.40
2018-05-16T02:51:46.298Z,188.40
2018-05-16T02:52:46.207Z,190.90
2018-05-16T02:53:46.103Z,186.10
2018-05-16T02:54:46.001Z,201.00
2018-05-16T02:55:45.910Z,192.80
2018-05-16T02:56:45.806Z,201.60
2018-05-16T02:57:45.715Z,199.50
2018-05-16T02:58:45.612Z,192.80
2018-05-16T02:59:45.509Z,205.10
2018-05-16T03:00:45.418Z,201.00
2018-05-16T03:01:45.314Z,200.80
2018-05-16T03:02:45.224Z,191.50
2018-05-16T03:03:45.133Z,200.10
2018-05-16T03:04:45.017Z,206.40
2018-05-16T03:05:44.926Z,195.30
2018-05-16T03:06:44.826Z,203.70
2018-05-16T03:07:44.722Z,199.60
2018-05-16T03:08:44.633Z,197.00
2018-05-16T03:09:44.525Z,204.30
2018-05-16T03:10:44.435Z,200.30
2018-05-16T03:11:44.332Z,211.10
2018-05-16T03:12:44.235Z,201.00
2018-05-16T03:13:44.137Z,202.20
2018-05-16T03:14:44.033Z,202.50
2018-05-16T03:15:43.946Z,202.30
2018-05-16T03:16:43.840Z,193.80
2018-05-16T03:17:43.737Z,205.00
2018-05-16T03:18:43.648Z,209.00
2018-05-16T03:19:43.541Z,202.40
2018-05-16T03:20:43.461Z,207.80
2018-05-16T03:21:43.349Z,212.60
2018-05-16T03:22:43.245Z,210.30
2018-05-16T03:23:43.154Z,217.80
2018-05-16T03:24:43.049Z,207.70
2018-05-16T03:25:42.953Z,204.00
2018-05-16T03:26:42.857Z,206.20
2018-05-16T03:27:42.753Z,202.30
2018-05-16T03:28:42.661Z,220.70
2018-05-16T03:29:42.559Z,210.90
2018-05-16T03:30:42.456Z,211.80
2018-05-16T03:31:42.365Z,214.30
2018-05-16T03:32:42.262Z,211.00
2018-05-16T03:33:42.173Z,216.40
2018-05-16T03:34:42.068Z,216.70
2018-05-16T03:35:41.964Z,216.10
2018-05-16T03:36:41.874Z,219.60
2018-05-16T03:37:41.771Z,219.20
2018-05-16T03:38:41.668Z,230.20
2018-05-16T03:39:41.575Z,236.10
2018-05-16T03:40:41.472Z,235.60
2018-05-16T03:41:41.383Z,227.90
2018-05-16T03:42:41.279Z,217.70
2018-05-16T03:43:41.175Z,225.80
2018-05-16T03:44:41.083Z,242.50
2018-05-16T03:45:40.998Z,226.80
2018-05-16T03:46:40.892Z,217.90
2018-05-16T03:47:40.788Z,220.80
2018-05-16T03:48:40.695Z,220.60
2018-05-16T03:49:40.593Z,231.20
2018-05-16T03:50:40.490Z,232.80
2018-05-16T03:51:40.398Z,225.10
2018-05-16T03:52:40.296Z,231.70
2018-05-16T03:53:40.192Z,234.00
2018-05-16T03:54:40.100Z,225.70
2018-05-16T03:55:39.997Z,213.60
2018-05-16T03:56:39.907Z,206.60
2018-05-16T03:57:39.804Z,208.90
2018-05-16T03:58:39.701Z,209.00
2018-05-16T03:59:39.609Z,216.30
2018-05-16T04:00:39.506Z,208.70
2018-05-16T04:01:39.417Z,196.50
2018-05-16T04:02:39.316Z,196.40
2018-05-16T04:03:39.209Z,196.40
2018-05-16T04:04:39.117Z,188.20
2018-05-16T04:05:39.014Z,197.90
2018-05-16T04:06:38.924Z,186.20
2018-05-16T04:07:38.821Z,200.30
2018-05-16T04:08:38.730Z,195.70
2018-05-16T04:09:38.627Z,191.30
2018-05-16T04:10:38.523Z,189.10
2018-05-16T04:11:38.433Z,193.80
2018-05-16T04:12:38.330Z,188.70
2018-05-16T04:13:38.247Z,183.80
2018-05-16T04:14:38.134Z,187.50
2018-05-16T04:15:38.033Z,186.20
2018-05-16T04:16:37.944Z,186.70
2018-05-16T04:17:38.089Z,199.60
2018-05-16T04:18:37.747Z,187.90
2018-05-16T04:19:37.643Z,185.70
2018-05-16T04:20:37.554Z,182.60
2018-05-16T04:21:37.450Z,176.70
2018-05-16T04:22:37.358Z,175.40
2018-05-16T04:23:37.255Z,190.30
2018-05-16T04:24:37.152Z,178.40
2018-05-16T04:25:37.062Z,177.00
2018-05-16T04:26:36.958Z,182.40
2018-05-16T04:27:36.879Z,175.10
2018-05-16T04:28:36.763Z,168.60
2018-05-16T04:29:36.675Z,181.70
2018-05-16T04:30:36.570Z,176.70
2018-05-16T04:31:36.478Z,183.20
2018-05-16T04:32:36.451Z,169.00
2018-05-16T04:33:36.273Z,168.00
2018-05-16T04:34:36.185Z,172.40
2018-05-16T04:35:36.084Z,170.60
2018-05-16T04:36:35.987Z,160.10
2018-05-16T04:37:35.884Z,160.20
2018-05-16T04:38:35.793Z,156.00
2018-05-16T04:39:35.694Z,156.00
2018-05-16T04:40:35.599Z,160.00
2018-05-16T04:41:35.495Z,164.60
2018-05-16T04:42:35.406Z,143.10
2018-05-16T04:43:35.308Z,150.30
2018-05-16T04:44:35.210Z,153.00
2018-05-16T04:45:35.107Z,135.20
2018-05-16T04:46:35.019Z,134.50
2018-05-16T04:47:34.912Z,139.10
2018-05-16T04:48:34.822Z,130.30
2018-05-16T04:49:34.719Z,135.00
2018-05-16T04:50:34.616Z,122.80
2018-05-16T04:51:34.534Z,135.90
2018-05-16T04:52:34.423Z,130.20
2018-05-16T04:53:34.330Z,120.80
2018-05-16T04:54:34.230Z,130.10
2018-05-16T04:55:34.137Z,121.20
2018-05-16T04:56:34.047Z,118.80
2018-05-16T04:57:33.942Z,115.40
2018-05-16T04:58:33.840Z,122.40
2018-05-16T04:59:33.751Z,118.30
2018-05-16T05:00:33.656Z,119.20
2018-05-16T05:01:33.553Z,118.90
2018-05-16T05:02:33.463Z,104.30
2018-05-16T05:03:33.361Z,101.90
2018-05-16T05:04:33.268Z,103.40
2018-05-16T05:05:33.165Z,111.40
2018-05-16T05:06:33.076Z,98.90
2018-05-16T05:07:32.976Z,101.00
2018-05-16T05:08:32.881Z,99.10
2018-05-16T05:09:32.779Z,98.90
2018-05-16T05:10:32.687Z,101.60
2018-05-16T05:11:32.596Z,96.30
2018-05-16T05:12:32.506Z,90.90
2018-05-16T05:13:32.403Z,87.20
2018-05-16T05:14:32.299Z,93.30
2018-05-16T05:15:32.207Z,87.60
2018-05-16T05:16:32.105Z,86.90
2018-05-16T05:17:32.015Z,79.30
2018-05-16T05:18:31.974Z,77.40
2018-05-16T05:19:31.819Z,80.50
2018-05-16T05:20:31.731Z,77.70
2018-05-16T05:21:31.626Z,76.00
2018-05-16T05:22:31.784Z,73.70
2018-05-16T05:23:31.431Z,69.30
2018-05-16T05:24:31.340Z,65.10
2018-05-16T05:25:31.239Z,66.10
2018-05-16T05:26:31.146Z,70.50
2018-05-16T05:27:31.044Z,61.00
2018-05-16T05:28:30.953Z,60.60
2018-05-16T05:29:30.861Z,54.70
2018-05-16T05:30:30.758Z,58.20
2018-05-16T05:31:30.668Z,57.00
2018-05-16T05:32:30.565Z,56.40
2018-05-16T05:33:30.476Z,52.50
2018-05-16T05:34:30.385Z,54.00
2018-05-16T05:35:30.280Z,58.00
2018-05-16T05:36:30.188Z,55.30
2018-05-16T05:37:30.097Z,50.10
2018-05-16T05:38:29.995Z,53.70
2018-05-16T05:39:29.903Z,51.60
2018-05-16T05:40:29.804Z,51.20
2018-05-16T05:41:29.709Z,48.40
2018-05-16T05:42:29.618Z,46.40
2018-05-16T05:43:29.610Z,46.60
2018-05-16T05:44:29.424Z,49.90
2018-05-16T05:45:29.333Z,50.10
2018-05-16T05:46:29.231Z,47.20
2018-05-16T05:47:29.140Z,39.30
2018-05-16T05:48:29.038Z,40.40
2018-05-16T05:49:28.946Z,36.30
2018-05-16T05:50:28.855Z,37.10
2018-05-16T05:51:28.752Z,37.90
2018-05-16T05:52:28.661Z,39.30
2018-05-16T05:53:28.570Z,34.10
2018-05-16T05:54:28.467Z,36.40
2018-05-16T05:55:28.376Z,37.10
2018-05-16T05:56:28.286Z,33.90
2018-05-16T05:57:28.182Z,35.50
2018-05-16T05:58:28.090Z,36.30
2018-05-16T05:59:28.000Z,35.00
2018-05-16T06:00:27.896Z,34.40
2018-05-16T06:01:27.805Z,32.60
2018-05-16T06:02:27.963Z,33.80
2018-05-16T06:03:27.614Z,32.90
2018-05-16T06:04:27.519Z,34.40
2018-05-16T06:05:27.493Z,34.10
2018-05-16T06:06:27.326Z,31.80
2018-05-16T06:07:27.235Z,31.40
2018-05-16T06:08:27.144Z,31.30
2018-05-16T06:09:27.042Z,30.60
2018-05-16T06:10:26.950Z,29.20
2018-05-16T06:11:26.859Z,29.00
2018-05-16T06:12:26.757Z,28.30
2018-05-16T06:13:26.665Z,28.00
2018-05-16T06:14:26.577Z,28.60
2018-05-16T06:15:26.484Z,29.00
2018-05-16T06:16:26.382Z,29.20
2018-05-16T06:17:26.290Z,28.20
2018-05-16T06:18:26.199Z,27.90
2018-05-16T06:19:26.116Z,29.30
2018-05-16T06:20:26.017Z,29.50
2018-05-16T06:21:25.926Z,28.70
2018-05-16T06:22:26.086Z,28.80
2018-05-16T06:23:25.745Z,28.60
2018-05-16T06:24:25.651Z,29.50
2018-05-16T06:25:25.551Z,29.40
2018-05-16T06:26:25.460Z,28.70
2018-05-16T06:27:25.468Z,27.90
2018-05-16T06:28:25.282Z,29.90
2018-05-16T06:29:25.187Z,29.00
2018-05-16T06:30:25.097Z,29.20
2018-05-16T06:31:25.005Z,27.80
2018-05-16T06:32:24.914Z,28.40
2018-05-16T06:33:24.823Z,28.70
2018-05-16T06:34:24.734Z,27.80
2018-05-16T06:35:24.642Z,28.60
2018-05-16T06:36:24.556Z,28.50
2018-05-16T06:37:24.460Z,27.50
2018-05-16T06:38:24.370Z,27.20
2018-05-16T06:39:24.279Z,27.50
2018-05-16T06:40:24.191Z,27.40
2018-05-16T06:41:24.096Z,28.00
2018-05-16T06:42:24.009Z,27.90
2018-05-16T06:43:23.915Z,28.70
2018-05-16T06:44:23.829Z,28.90
2018-05-16T06:45:23.735Z,26.80
2018-05-16T06:46:23.644Z,29.10
2018-05-16T06:47:23.552Z,29.20
2018-05-16T06:48:23.462Z,27.40
2018-05-16T06:49:23.384Z,29.50
2018-05-16T06:50:23.280Z,28.20
2018-05-16T06:51:23.189Z,27.70
2018-05-16T06:52:23.098Z,29.30
2018-05-16T06:53:23.007Z,29.10
2018-05-16T06:54:22.917Z,27.60
2018-05-16T06:55:22.825Z,28.50
2018-05-16T06:56:22.771Z,30.10
2018-05-16T06:57:22.947Z,28.80
2018-05-16T06:58:22.554Z,27.20
2018-05-16T06:59:22.469Z,30.50
2018-05-16T07:00:22.372Z,27.10
2018-05-16T07:01:22.281Z,27.00
2018-05-16T07:02:22.191Z,26.80
2018-05-16T07:03:22.099Z,27.40
2018-05-16T07:04:22.010Z,27.40
2018-05-16T07:05:21.917Z,26.10
2018-05-16T07:06:21.828Z,26.90
2018-05-16T07:07:21.736Z,26.60
2018-05-16T07:08:21.633Z,27.70
2018-05-16T07:09:21.543Z,27.80
2018-05-16T07:10:21.453Z,26.20
2018-05-16T07:11:21.362Z,27.40
2018-05-16T07:12:21.270Z,27.50
2018-05-16T07:13:21.179Z,26.40
2018-05-16T07:14:21.088Z,27.30
2018-05-16T07:15:20.998Z,25.50
2018-05-16T07:16:20.906Z,26.00
2018-05-16T07:17:21.066Z,26.30
2018-05-16T07:18:20.724Z,26.20
2018-05-16T07:19:20.634Z,26.20
2018-05-16T07:20:20.543Z,25.60
2018-05-16T07:21:20.457Z,26.90
2018-05-16T07:22:20.361Z,26.20
2018-05-16T07:23:20.271Z,26.70
2018-05-16T07:24:20.179Z,28.20
2018-05-16T07:25:20.090Z,28.10
2018-05-16T07:26:19.998Z,28.30
2018-05-16T07:27:19.908Z,25.70
2018-05-16T07:28:19.830Z,25.10
2018-05-16T07:29:19.738Z,26.40
2018-05-16T07:30:19.655Z,25.20
2018-05-16T07:31:19.557Z,25.40
2018-05-16T07:32:19.482Z,25.00
2018-05-16T07:33:19.388Z,26.20
2018-05-16T07:34:19.298Z,25.80
2018-05-16T07:35:19.207Z,25.50
2018-05-16T07:36:19.115Z,27.00
2018-05-16T07:37:19.026Z,25.80
2018-05-16T07:38:18.949Z,25.50
2018-05-16T07:39:18.855Z,23.80
2018-05-16T07:40:18.765Z,25.00
2018-05-16T07:41:18.678Z,23.90
2018-05-16T07:42:18.595Z,24.30
2018-05-16T07:43:18.506Z,24.20
2018-05-16T07:44:18.426Z,24.50
2018-05-16T07:45:18.334Z,23.40
2018-05-16T07:46:18.251Z,23.90
2018-05-16T07:47:18.153Z,24.60
2018-05-16T07:48:18.074Z,22.80
2018-05-16T07:49:17.984Z,24.40
2018-05-16T07:50:17.894Z,23.00
2018-05-16T07:51:17.874Z,24.60
2018-05-16T07:52:17.726Z,23.00
2018-05-16T07:53:17.635Z,23.20
2018-05-16T07:54:17.555Z,23.80
2018-05-16T07:55:17.466Z,24.10
2018-05-16T07:56:17.375Z,25.10
2018-05-16T07:57:17.295Z,22.50
2018-05-16T07:58:17.204Z,22.80
2018-05-16T07:59:17.126Z,22.80
2018-05-16T08:00:17.029Z,22.70
2018-05-16T08:01:16.945Z,22.60
2018-05-16T08:02:16.854Z,22.50
2018-05-16T08:03:16.830Z,21.20
2018-05-16T08:04:16.686Z,22.00
2018-05-16T08:05:16.594Z,21.80
2018-05-16T08:06:16.515Z,22.10
2018-05-16T08:07:16.427Z,22.30
2018-05-16T08:08:16.347Z,20.50
2018-05-16T08:09:16.243Z,21.50
2018-05-16T08:10:16.165Z,22.40
2018-05-16T08:11:16.074Z,21.10
2018-05-16T08:12:16.054Z,19.40
2018-05-16T08:13:15.906Z,20.30
2018-05-16T08:14:15.804Z,20.00
2018-05-16T08:15:15.724Z,19.70
2018-05-16T08:16:15.632Z,20.10
2018-05-16T08:17:15.543Z,20.50
2018-05-16T08:18:15.450Z,20.00
2018-05-16T08:19:15.370Z,19.80
2018-05-16T08:20:15.283Z,19.90
2018-05-16T08:21:15.191Z,18.40
2018-05-16T08:22:15.100Z,17.40
2018-05-16T08:23:15.011Z,17.00
2018-05-16T08:24:14.920Z,17.60
2018-05-16T08:25:14.841Z,20.00
2018-05-16T08:26:14.749Z,17.40
2018-05-16T08:27:14.658Z,17.10
2018-05-16T08:28:14.567Z,19.30
2018-05-16T08:29:14.477Z,18.30
2018-05-16T08:30:14.386Z,18.90
2018-05-16T08:31:14.404Z,20.30
2018-05-16T08:32:14.218Z,19.20
2018-05-16T08:33:14.126Z,19.20
2018-05-16T08:34:14.036Z,21.50
2018-05-16T08:35:13.946Z,18.40
2018-05-16T08:36:13.854Z,18.60
2018-05-16T08:37:13.766Z,21.00
2018-05-16T08:38:13.684Z,17.60
2018-05-16T08:39:13.595Z,18.20
2018-05-16T08:40:13.504Z,18.70
2018-05-16T08:41:13.413Z,17.70
2018-05-16T08:42:13.322Z,19.00
2018-05-16T08:43:13.241Z,18.70
2018-05-16T08:44:13.139Z,17.50
2018-05-16T08:45:13.049Z,17.80
2018-05-16T08:46:12.960Z,18.00
2018-05-16T08:47:12.879Z,18.90
2018-05-16T08:48:12.789Z,16.50
2018-05-16T08:49:12.700Z,17.70
2018-05-16T08:50:12.608Z,17.80
2018-05-16T08:51:12.516Z,18.80
2018-05-16T08:52:12.428Z,19.90
2018-05-16T08:53:12.335Z,18.70
2018-05-16T08:54:12.258Z,18.40
2018-05-16T08:55:12.166Z,18.40
2018-05-16T08:56:12.075Z,19.10
2018-05-16T08:57:11.985Z,17.90
2018-05-16T08:58:11.893Z,17.30
2018-05-16T08:59:11.818Z,15.90
2018-05-16T09:00:11.725Z,17.70
2018-05-16T09:01:11.701Z,17.50
2018-05-16T09:02:11.545Z,17.10
2018-05-16T09:03:11.465Z,15.40
2018-05-16T09:04:11.375Z,16.00
2018-05-16T09:05:11.284Z,16.90
2018-05-16T09:06:11.193Z,15.60
2018-05-16T09:07:11.113Z,17.50
2018-05-16T09:08:11.024Z,15.60
2018-05-16T09:09:10.933Z,18.10
2018-05-16T09:10:10.853Z,16.50
2018-05-16T09:11:10.764Z,15.90
2018-05-16T09:12:10.673Z,15.50
2018-05-16T09:13:10.593Z,14.70
2018-05-16T09:14:10.503Z,14.10
2018-05-16T09:15:10.425Z,14.90
2018-05-16T09:16:10.336Z,14.00
2018-05-16T09:17:10.328Z,13.80
2018-05-16T09:18:10.166Z,13.50
2018-05-16T09:19:10.075Z,14.30
2018-05-16T09:20:09.995Z,12.10
2018-05-16T09:21:09.906Z,12.00
2018-05-16T09:22:09.816Z,11.60
2018-05-16T09:23:09.737Z,11.80
2018-05-16T09:24:09.646Z,13.60
2018-05-16T09:25:09.593Z,15.00
2018-05-16T09:26:09.476Z,13.50
2018-05-16T09:27:09.385Z,13.60
2018-05-16T09:28:09.306Z,13.20
2018-05-16T09:29:09.230Z,16.30
2018-05-16T09:30:09.126Z,13.50
2018-05-16T09:31:09.048Z,14.20
2018-05-16T09:32:08.958Z,11.70
2018-05-16T09:33:08.880Z,16.20
2018-05-16T09:34:08.788Z,14.90
2018-05-16T09:35:08.722Z,13.20
2018-05-16T09:36:08.630Z,12.90
2018-05-16T09:37:08.529Z,12.30
2018-05-16T09:38:08.436Z,11.80
2018-05-16T09:39:08.357Z,16.20
2018-05-16T09:40:08.268Z,12.10
2018-05-16T09:41:08.189Z,11.80
2018-05-16T09:42:08.097Z,11.50
2018-05-16T09:43:08.007Z,11.90
2018-05-16T09:44:07.930Z,12.60
2018-05-16T09:45:07.838Z,13.00
2018-05-16T09:46:07.759Z,14.70
2018-05-16T09:47:07.671Z,11.10
2018-05-16T09:48:07.598Z,12.90
2018-05-16T09:49:07.501Z,13.60
2018-05-16T09:50:07.413Z,12.10
2018-05-16T09:51:07.331Z,13.60
2018-05-16T09:52:07.240Z,11.90
2018-05-16T09:53:07.161Z,10.70
2018-05-16T09:54:07.083Z,10.30
2018-05-16T09:55:06.993Z,11.00
2018-05-16T09:56:06.901Z,11.50
2018-05-16T09:57:06.824Z,12.80
2018-05-16T09:58:06.736Z,11.80
2018-05-16T09:59:06.641Z,12.20
2018-05-16T10:00:06.563Z,10.30
2018-05-16T10:01:06.475Z,10.00
2018-05-16T10:02:06.381Z,9.80
2018-05-16T10:03:06.315Z,10.20
2018-05-16T10:04:06.213Z,11.10
2018-05-16T10:05:06.123Z,10.80
2018-05-16T10:06:06.044Z,10.70
2018-05-16T10:07:05.953Z,10.50
2018-05-16T10:08:05.877Z,12.00
2018-05-16T10:09:05.784Z,11.90
2018-05-16T10:10:05.695Z,12.10
2018-05-16T10:11:05.602Z,11.10
2018-05-16T10:12:05.525Z,11.00
2018-05-16T10:13:05.434Z,10.70
2018-05-16T10:14:05.342Z,10.10
2018-05-16T10:15:05.290Z,13.90
2018-05-16T10:16:05.173Z,12.50
2018-05-16T10:17:05.141Z,12.80
2018-05-16T10:18:05.003Z,11.30
2018-05-16T10:19:04.914Z,11.90
2018-05-16T10:20:04.823Z,9.70
2018-05-16T10:21:04.747Z,9.30
2018-05-16T10:22:04.904Z,7.90
2018-05-16T10:23:04.562Z,8.40
2018-05-16T10:24:04.483Z,9.50
2018-05-16T10:25:04.394Z,8.70
2018-05-16T10:26:04.304Z,9.10
2018-05-16T10:27:04.216Z,9.00
2018-05-16T10:28:04.133Z,8.70
2018-05-16T10:29:04.042Z,8.60
2018-05-16T10:30:03.953Z,8.80
2018-05-16T10:31:03.873Z,8.90
2018-05-16T10:32:03.782Z,9.70
2018-05-16T10:33:03.696Z,9.60
2018-05-16T10:34:03.602Z,10.00
2018-05-16T10:35:03.527Z,8.70
2018-05-16T10:36:03.433Z,9.30
2018-05-16T10:37:03.340Z,10.60
2018-05-16T10:38:03.261Z,9.30
2018-05-16T10:39:03.172Z,8.40
2018-05-16T10:40:03.081Z,9.70
2018-05-16T10:41:03.003Z,9.00
2018-05-16T10:42:02.995Z,10.40
2018-05-16T10:43:02.821Z,8.60
2018-05-16T10:44:02.742Z,8.20
2018-05-16T10:45:02.653Z,8.40
2018-05-16T10:46:02.574Z,7.50
2018-05-16T10:47:02.482Z,7.90
2018-05-16T10:48:02.392Z,7.90
2018-05-16T10:49:02.314Z,8.50
2018-05-16T10:50:02.225Z,7.50
2018-05-16T10:51:02.144Z,7.50
2018-05-16T10:52:02.064Z,11.20
2018-05-16T10:53:01.964Z,7.10
2018-05-16T10:54:01.888Z,7.90
2018-05-16T10:55:01.798Z,7.20
2018-05-16T10:56:01.718Z,7.90
2018-05-16T10:57:01.625Z,7.60
2018-05-16T10:58:01.534Z,10.10
2018-05-16T10:59:01.456Z,8.00
2018-05-16T11:00:01.368Z,8.50
2018-05-16T11:01:01.286Z,7.30
2018-05-16T11:02:01.202Z,7.00
2018-05-16T11:03:01.106Z,7.60
2018-05-16T11:04:01.026Z,6.90
2018-05-16T11:05:00.937Z,6.60
2018-05-16T11:06:00.845Z,7.00
2018-05-16T11:07:00.766Z,7.10
2018-05-16T11:08:00.675Z,6.80
2018-05-16T11:09:00.643Z,7.10
2018-05-16T11:10:00.506Z,8.50
2018-05-16T11:11:00.416Z,6.70
2018-05-16T11:12:00.343Z,6.50
2018-05-16T11:13:00.260Z,6.70
2018-05-16T11:14:00.156Z,7.40
2018-05-16T11:15:00.078Z,6.90
2018-05-16T11:15:59.990Z,7.30
2018-05-16T11:16:59.908Z,6.60
2018-05-16T11:17:59.817Z,6.40
2018-05-16T11:18:59.727Z,6.70
2018-05-16T11:19:59.648Z,7.50
2018-05-16T11:20:59.564Z,6.40
2018-05-16T11:21:59.486Z,7.40
2018-05-16T11:22:59.388Z,8.00
2018-05-16T11:23:59.311Z,8.60
2018-05-16T11:24:59.223Z,7.70
2018-05-16T11:25:59.145Z,9.00
2018-05-16T11:26:59.050Z,7.30
2018-05-16T11:27:58.971Z,6.70
2018-05-16T11:28:58.886Z,7.00
2018-05-16T11:29:58.804Z,7.10
2018-05-16T11:30:58.712Z,7.40
2018-05-16T11:31:58.633Z,7.00
2018-05-16T11:32:58.543Z,7.10
2018-05-16T11:33:58.451Z,7.40
2018-05-16T11:34:58.373Z,7.50
2018-05-16T11:35:58.284Z,10.00
2018-05-16T11:36:58.207Z,10.10
2018-05-16T11:37:58.114Z,6.80
2018-05-16T11:38:58.025Z,9.00
2018-05-16T11:39:57.945Z,9.00
2018-05-16T11:40:57.853Z,7.50
2018-05-16T11:41:57.764Z,6.70
2018-05-16T11:42:57.685Z,6.80
2018-05-16T11:43:57.596Z,6.60
2018-05-16T11:44:57.503Z,6.50
2018-05-16T11:45:57.426Z,6.90
2018-05-16T11:46:57.333Z,6.70
2018-05-16T11:47:57.247Z,9.10
2018-05-16T11:48:57.202Z,6.40
2018-05-16T11:49:57.086Z,6.70
2018-05-16T11:50:56.983Z,6.60
2018-05-16T11:51:56.893Z,8.60
2018-05-16T11:52:56.813Z,6.90
2018-05-16T11:53:56.724Z,6.80
2018-05-16T11:54:56.632Z,8.50
2018-05-16T11:55:56.542Z,7.20
2018-05-16T11:56:56.451Z,7.60
2018-05-16T11:57:56.373Z,7.40
2018-05-16T11:58:56.282Z,7.10
2018-05-16T11:59:56.190Z,6.80
2018-05-16T12:00:56.101Z,7.30
2018-05-16T12:01:56.021Z,7.70
2018-05-16T12:02:55.966Z,6.70
2018-05-16T12:03:55.840Z,7.80
2018-05-16T12:04:55.750Z,6.70
2018-05-16T12:05:55.671Z,7.60
2018-05-16T12:06:55.581Z,8.10
2018-05-16T12:07:55.489Z,9.50
2018-05-16T12:08:55.410Z,7.80
2018-05-16T12:09:55.363Z,7.20
2018-05-16T12:10:55.228Z,7.70
2018-05-16T12:11:55.150Z,8.30
2018-05-16T12:12:55.061Z,8.60
2018-05-16T12:13:54.969Z,9.20
2018-05-16T12:14:54.905Z,7.10
2018-05-16T12:15:54.800Z,8.00
2018-05-16T12:16:54.715Z,6.70
2018-05-16T12:17:54.620Z,8.30
2018-05-16T12:18:54.548Z,7.40
2018-05-16T12:19:54.448Z,7.40
2018-05-16T12:20:54.371Z,9.00
2018-05-16T12:21:54.280Z,6.80
2018-05-16T12:22:54.189Z,8.20
2018-05-16T12:23:54.099Z,7.40
2018-05-16T12:24:54.020Z,8.80
2018-05-16T12:25:53.929Z,7.20
2018-05-16T12:26:53.842Z,9.70
2018-05-16T12:27:53.762Z,8.00
2018-05-16T12:28:53.722Z,6.60
2018-05-16T12:29:53.579Z,7.70
2018-05-16T12:30:53.488Z,7.40
2018-05-16T12:31:53.410Z,6.80
2018-05-16T12:32:53.327Z,8.00
2018-05-16T12:33:53.228Z,6.90
2018-05-16T12:34:53.138Z,7.10
2018-05-16T12:35:53.061Z,9.40
2018-05-16T12:36:52.970Z,7.70
2018-05-16T12:37:52.877Z,7.30
2018-05-16T12:38:52.786Z,6.70
2018-05-16T12:39:52.708Z,7.20
2018-05-16T12:40:52.617Z,7.40
2018-05-16T12:41:52.528Z,7.10
2018-05-16T12:42:52.435Z,7.20
2018-05-16T12:43:52.359Z,7.20
2018-05-16T12:44:52.267Z,6.40
2018-05-16T12:45:52.175Z,6.90